Newtown, Virginia
Current Conditions -  °F | °C
As of 7:55 PM on Saturday 22 Nov 2014 (Local Time) from KXSA Reporting Station
Clear Clear  
Wind Chill: 37°   Ceiling: Unl
Heat Index: 40°   Visibility: 10mi
Dew Point: 11°   Wind: 5mph
Humidity: 31%   Direction: 190°S
Pressure: 30.33"   Gusts: NA
Location:  37.91°N, 77.12°W
Report Text: KXSA 230055Z AUTO 19004KT 10SM CLR 05/M11 A3033 RMK AO2 T00451114
Loading
Personal Weather Stations






























Interactive Weather Map New forecast layout! Learn more

10-Day Weather Forecast

Advertisements
Track Severe Weather on mobile